sensor_id;sensor_type;location;lat;lon;timestamp;P1;durP1;ratioP1;P2;durP2;ratioP2
57899;SDS011;60605;53.716;19.940;2022-09-24T00:02:17;14.90;;;11.30;;
57899;SDS011;60605;53.716;19.940;2022-09-24T00:07:20;19.90;;;11.10;;
57899;SDS011;60605;53.716;19.940;2022-09-24T00:12:23;17.40;;;11.40;;
57899;SDS011;60605;53.716;19.940;2022-09-24T00:17:26;15.50;;;11.30;;
57899;SDS011;60605;53.716;19.940;2022-09-24T00:22:31;14.90;;;10.90;;
57899;SDS011;60605;53.716;19.940;2022-09-24T00:27:34;17.00;;;12.20;;
57899;SDS011;60605;53.716;19.940;2022-09-24T00:32:38;17.00;;;11.60;;
57899;SDS011;60605;53.716;19.940;2022-09-24T00:42:44;13.80;;;10.60;;
57899;SDS011;60605;53.716;19.940;2022-09-24T00:47:47;13.90;;;11.10;;
57899;SDS011;60605;53.716;19.940;2022-09-24T00:58:02;11.90;;;10.10;;
57899;SDS011;60605;53.716;19.940;2022-09-24T01:03:08;13.70;;;10.80;;
57899;SDS011;60605;53.716;19.940;2022-09-24T01:08:17;13.50;;;9.90;;
57899;SDS011;60605;53.716;19.940;2022-09-24T01:35:01;13.80;;;10.30;;
57899;SDS011;60605;53.716;19.940;2022-09-24T01:40:08;14.80;;;10.60;;
57899;SDS011;60605;53.716;19.940;2022-09-24T01:45:14;16.20;;;11.00;;
57899;SDS011;60605;53.716;19.940;2022-09-24T01:50:19;16.10;;;11.70;;
57899;SDS011;60605;53.716;19.940;2022-09-24T01:55:27;26.20;;;13.70;;
57899;SDS011;60605;53.716;19.940;2022-09-24T02:00:37;29.10;;;16.80;;
57899;SDS011;60605;53.716;19.940;2022-09-24T02:05:50;32.50;;;17.30;;
57899;SDS011;60605;53.716;19.940;2022-09-24T02:11:07;27.20;;;16.20;;
57899;SDS011;60605;53.716;19.940;2022-09-24T02:16:18;24.50;;;15.20;;
57899;SDS011;60605;53.716;19.940;2022-09-24T02:21:26;27.50;;;14.70;;
57899;SDS011;60605;53.716;19.940;2022-09-24T02:26:31;21.80;;;13.60;;
57899;SDS011;60605;53.716;19.940;2022-09-24T02:31:39;21.00;;;14.00;;
57899;SDS011;60605;53.716;19.940;2022-09-24T02:36:49;22.00;;;15.60;;
57899;SDS011;60605;53.716;19.940;2022-09-24T02:41:54;20.90;;;14.30;;
57899;SDS011;60605;53.716;19.940;2022-09-24T02:47:00;20.70;;;14.50;;
57899;SDS011;60605;53.716;19.940;2022-09-24T02:52:04;20.40;;;14.40;;
57899;SDS011;60605;53.716;19.940;2022-09-24T02:57:07;18.80;;;15.30;;
57899;SDS011;60605;53.716;19.940;2022-09-24T03:07:14;20.10;;;14.40;;
57899;SDS011;60605;53.716;19.940;2022-09-24T03:12:17;15.40;;;12.80;;
57899;SDS011;60605;53.716;19.940;2022-09-24T03:17:21;18.50;;;12.40;;
57899;SDS011;60605;53.716;19.940;2022-09-24T03:22:24;18.00;;;12.70;;
57899;SDS011;60605;53.716;19.940;2022-09-24T03:32:31;15.80;;;13.20;;
57899;SDS011;60605;53.716;19.940;2022-09-24T03:37:36;25.00;;;14.10;;
57899;SDS011;60605;53.716;19.940;2022-09-24T03:42:39;17.40;;;13.90;;
57899;SDS011;60605;53.716;19.940;2022-09-24T03:52:45;16.70;;;14.00;;
57899;SDS011;60605;53.716;19.940;2022-09-24T03:57:49;15.70;;;12.40;;
57899;SDS011;60605;53.716;19.940;2022-09-24T04:07:56;35.40;;;22.90;;
57899;SDS011;60605;53.716;19.940;2022-09-24T04:13:00;30.40;;;19.20;;
57899;SDS011;60605;53.716;19.940;2022-09-24T04:18:04;20.10;;;14.60;;
57899;SDS011;60605;53.716;19.940;2022-09-24T04:23:08;32.30;;;18.40;;
57899;SDS011;60605;53.716;19.940;2022-09-24T04:28:12;27.80;;;16.40;;
57899;SDS011;60605;53.716;19.940;2022-09-24T04:33:15;35.00;;;17.60;;
57899;SDS011;60605;53.716;19.940;2022-09-24T04:38:19;23.40;;;14.50;;
57899;SDS011;60605;53.716;19.940;2022-09-24T04:43:23;19.60;;;14.70;;
57899;SDS011;60605;53.716;19.940;2022-09-24T04:48:26;34.70;;;20.60;;
57899;SDS011;60605;53.716;19.940;2022-09-24T04:58:34;82.30;;;35.60;;
57899;SDS011;60605;53.716;19.940;2022-09-24T05:03:37;61.90;;;30.60;;
57899;SDS011;60605;53.716;19.940;2022-09-24T05:08:41;44.40;;;24.20;;
57899;SDS011;60605;53.716;19.940;2022-09-24T05:13:44;99.60;;;34.70;;
57899;SDS011;60605;53.716;19.940;2022-09-24T05:18:47;44.10;;;25.70;;
57899;SDS011;60605;53.716;19.940;2022-09-24T05:23:50;49.00;;;24.10;;
57899;SDS011;60605;53.716;19.940;2022-09-24T05:28:53;37.00;;;20.40;;
57899;SDS011;60605;53.716;19.940;2022-09-24T05:33:56;35.60;;;19.90;;
57899;SDS011;60605;53.716;19.940;2022-09-24T05:44:04;38.10;;;21.60;;
57899;SDS011;60605;53.716;19.940;2022-09-24T05:49:08;24.20;;;15.20;;
57899;SDS011;60605;53.716;19.940;2022-09-24T05:54:11;20.00;;;13.90;;
57899;SDS011;60605;53.716;19.940;2022-09-24T05:59:15;20.50;;;14.30;;
57899;SDS011;60605;53.716;19.940;2022-09-24T06:04:18;17.40;;;14.90;;
57899;SDS011;60605;53.716;19.940;2022-09-24T06:09:21;12.60;;;10.20;;
57899;SDS011;60605;53.716;19.940;2022-09-24T06:14:24;18.10;;;12.90;;
57899;SDS011;60605;53.716;19.940;2022-09-24T06:19:27;30.30;;;18.70;;
57899;SDS011;60605;53.716;19.940;2022-09-24T06:29:33;26.60;;;11.20;;
57899;SDS011;60605;53.716;19.940;2022-09-24T06:39:39;15.30;;;9.30;;
57899;SDS011;60605;53.716;19.940;2022-09-24T06:54:49;24.70;;;14.20;;
57899;SDS011;60605;53.716;19.940;2022-09-24T07:04:55;38.10;;;27.00;;
57899;SDS011;60605;53.716;19.940;2022-09-24T07:09:59;52.90;;;40.00;;
57899;SDS011;60605;53.716;19.940;2022-09-24T07:15:10;18.80;;;10.50;;
57899;SDS011;60605;53.716;19.940;2022-09-24T07:20:14;16.90;;;10.80;;
57899;SDS011;60605;53.716;19.940;2022-09-24T07:25:17;11.80;;;8.20;;
57899;SDS011;60605;53.716;19.940;2022-09-24T07:30:20;13.30;;;7.50;;
57899;SDS011;60605;53.716;19.940;2022-09-24T07:35:24;14.50;;;8.00;;
57899;SDS011;60605;53.716;19.940;2022-09-24T07:40:30;9.00;;;6.60;;
57899;SDS011;60605;53.716;19.940;2022-09-24T07:45:34;7.50;;;6.10;;
57899;SDS011;60605;53.716;19.940;2022-09-24T07:50:38;9.80;;;6.40;;
57899;SDS011;60605;53.716;19.940;2022-09-24T07:55:44;9.10;;;6.00;;
57899;SDS011;60605;53.716;19.940;2022-09-24T08:00:47;13.20;;;8.90;;
57899;SDS011;60605;53.716;19.940;2022-09-24T08:05:50;12.10;;;7.30;;
57899;SDS011;60605;53.716;19.940;2022-09-24T08:11:02;6.90;;;5.30;;
57899;SDS011;60605;53.716;19.940;2022-09-24T08:16:06;8.80;;;5.00;;
57899;SDS011;60605;53.716;19.940;2022-09-24T08:21:10;8.50;;;5.00;;
57899;SDS011;60605;53.716;19.940;2022-09-24T08:26:15;4.20;;;3.80;;
57899;SDS011;60605;53.716;19.940;2022-09-24T08:31:19;8.10;;;5.20;;
57899;SDS011;60605;53.716;19.940;2022-09-24T08:36:22;5.10;;;3.10;;
57899;SDS011;60605;53.716;19.940;2022-09-24T08:41:36;3.50;;;3.20;;
57899;SDS011;60605;53.716;19.940;2022-09-24T08:46:46;3.60;;;3.00;;
57899;SDS011;60605;53.716;19.940;2022-09-24T09:03:03;5.30;;;3.30;;
57899;SDS011;60605;53.716;19.940;2022-09-24T09:14:08;4.60;;;3.20;;
57899;SDS011;60605;53.716;19.940;2022-09-24T09:19:16;3.10;;;2.80;;
57899;SDS011;60605;53.716;19.940;2022-09-24T09:24:25;5.30;;;3.50;;
57899;SDS011;60605;53.716;19.940;2022-09-24T09:29:37;4.10;;;3.00;;
57899;SDS011;60605;53.716;19.940;2022-09-24T09:46:08;2.40;;;2.10;;
57899;SDS011;60605;53.716;19.940;2022-09-24T09:51:21;2.20;;;2.00;;
57899;SDS011;60605;53.716;19.940;2022-09-24T09:56:35;3.40;;;2.40;;
57899;SDS011;60605;53.716;19.940;2022-09-24T10:01:44;2.30;;;2.10;;
57899;SDS011;60605;53.716;19.940;2022-09-24T10:06:49;2.50;;;2.10;;
57899;SDS011;60605;53.716;19.940;2022-09-24T10:11:52;2.30;;;2.10;;
57899;SDS011;60605;53.716;19.940;2022-09-24T10:16:55;2.00;;;1.80;;
57899;SDS011;60605;53.716;19.940;2022-09-24T10:22:08;3.40;;;1.80;;
57899;SDS011;60605;53.716;19.940;2022-09-24T10:27:32;3.60;;;1.80;;
57899;SDS011;60605;53.716;19.940;2022-09-24T10:32:37;2.40;;;1.90;;
57899;SDS011;60605;53.716;19.940;2022-09-24T10:37:49;3.40;;;2.00;;
57899;SDS011;60605;53.716;19.940;2022-09-24T10:42:55;2.00;;;1.80;;
57899;SDS011;60605;53.716;19.940;2022-09-24T11:12:40;2.00;;;1.90;;
57899;SDS011;60605;53.716;19.940;2022-09-24T11:18:02;2.10;;;1.90;;
57899;SDS011;60605;53.716;19.940;2022-09-24T11:55:38;5.10;;;2.10;;
57899;SDS011;60605;53.716;19.940;2022-09-24T12:00:47;2.90;;;2.30;;
57899;SDS011;60605;53.716;19.940;2022-09-24T12:06:00;2.10;;;1.80;;
57899;SDS011;60605;53.716;19.940;2022-09-24T12:16:35;1.60;;;1.50;;
57899;SDS011;60605;53.716;19.940;2022-09-24T12:21:40;1.70;;;1.60;;
57899;SDS011;60605;53.716;19.940;2022-09-24T12:26:44;3.50;;;2.20;;
57899;SDS011;60605;53.716;19.940;2022-09-24T12:37:38;3.20;;;2.30;;
57899;SDS011;60605;53.716;19.940;2022-09-24T12:42:47;2.00;;;1.70;;
57899;SDS011;60605;53.716;19.940;2022-09-24T12:47:53;3.30;;;2.20;;
57899;SDS011;60605;53.716;19.940;2022-09-24T12:53:01;2.40;;;2.10;;
57899;SDS011;60605;53.716;19.940;2022-09-24T12:58:25;2.90;;;2.10;;
57899;SDS011;60605;53.716;19.940;2022-09-24T13:03:39;2.60;;;1.90;;
57899;SDS011;60605;53.716;19.940;2022-09-24T13:08:48;1.50;;;1.40;;
57899;SDS011;60605;53.716;19.940;2022-09-24T13:24:50;2.50;;;2.10;;
57899;SDS011;60605;53.716;19.940;2022-09-24T13:30:03;2.80;;;1.90;;
57899;SDS011;60605;53.716;19.940;2022-09-24T13:35:13;3.10;;;2.20;;
57899;SDS011;60605;53.716;19.940;2022-09-24T13:40:24;4.20;;;2.30;;
57899;SDS011;60605;53.716;19.940;2022-09-24T13:45:30;3.10;;;2.00;;
57899;SDS011;60605;53.716;19.940;2022-09-24T13:50:38;3.10;;;2.20;;
57899;SDS011;60605;53.716;19.940;2022-09-24T13:55:47;2.30;;;1.90;;
57899;SDS011;60605;53.716;19.940;2022-09-24T14:00:53;2.70;;;1.80;;
57899;SDS011;60605;53.716;19.940;2022-09-24T14:06:00;2.10;;;1.90;;
57899;SDS011;60605;53.716;19.940;2022-09-24T14:11:14;1.90;;;1.80;;
57899;SDS011;60605;53.716;19.940;2022-09-24T14:16:21;2.20;;;2.00;;
57899;SDS011;60605;53.716;19.940;2022-09-24T14:21:33;2.40;;;2.20;;
57899;SDS011;60605;53.716;19.940;2022-09-24T14:32:17;2.50;;;2.20;;
57899;SDS011;60605;53.716;19.940;2022-09-24T14:37:25;6.90;;;2.40;;
57899;SDS011;60605;53.716;19.940;2022-09-24T14:42:36;2.90;;;2.10;;
57899;SDS011;60605;53.716;19.940;2022-09-24T14:47:44;2.90;;;2.10;;
57899;SDS011;60605;53.716;19.940;2022-09-24T14:52:52;6.00;;;2.40;;
57899;SDS011;60605;53.716;19.940;2022-09-24T14:57:57;4.30;;;2.40;;
57899;SDS011;60605;53.716;19.940;2022-09-24T15:08:26;4.40;;;3.60;;
57899;SDS011;60605;53.716;19.940;2022-09-24T15:13:33;9.00;;;8.20;;
57899;SDS011;60605;53.716;19.940;2022-09-24T15:18:39;3.80;;;3.50;;
57899;SDS011;60605;53.716;19.940;2022-09-24T15:23:40;3.50;;;3.20;;
57899;SDS011;60605;53.716;19.940;2022-09-24T15:28:42;3.30;;;3.00;;
57899;SDS011;60605;53.716;19.940;2022-09-24T15:33:44;3.30;;;2.50;;
57899;SDS011;60605;53.716;19.940;2022-09-24T15:38:46;2.90;;;2.70;;
57899;SDS011;60605;53.716;19.940;2022-09-24T15:43:49;4.40;;;4.00;;
57899;SDS011;60605;53.716;19.940;2022-09-24T15:48:51;3.20;;;2.90;;
57899;SDS011;60605;53.716;19.940;2022-09-24T15:53:54;5.10;;;3.80;;
57899;SDS011;60605;53.716;19.940;2022-09-24T15:58:56;11.50;;;7.10;;
57899;SDS011;60605;53.716;19.940;2022-09-24T16:03:58;7.00;;;5.30;;
57899;SDS011;60605;53.716;19.940;2022-09-24T16:08:59;11.30;;;7.30;;
57899;SDS011;60605;53.716;19.940;2022-09-24T16:14:01;17.60;;;10.30;;
57899;SDS011;60605;53.716;19.940;2022-09-24T16:19:03;20.40;;;11.30;;
57899;SDS011;60605;53.716;19.940;2022-09-24T16:24:07;15.10;;;8.60;;
57899;SDS011;60605;53.716;19.940;2022-09-24T16:29:09;22.40;;;11.30;;
57899;SDS011;60605;53.716;19.940;2022-09-24T16:39:15;49.60;;;21.40;;
57899;SDS011;60605;53.716;19.940;2022-09-24T16:44:18;43.50;;;19.80;;
57899;SDS011;60605;53.716;19.940;2022-09-24T16:49:21;54.90;;;25.40;;
57899;SDS011;60605;53.716;19.940;2022-09-24T16:54:23;93.90;;;45.80;;
57899;SDS011;60605;53.716;19.940;2022-09-24T16:59:27;63.40;;;38.90;;
57899;SDS011;60605;53.716;19.940;2022-09-24T17:04:30;52.70;;;33.00;;
57899;SDS011;60605;53.716;19.940;2022-09-24T17:09:35;22.10;;;15.40;;
57899;SDS011;60605;53.716;19.940;2022-09-24T17:14:57;25.60;;;18.00;;
57899;SDS011;60605;53.716;19.940;2022-09-24T17:20:03;58.30;;;27.40;;
57899;SDS011;60605;53.716;19.940;2022-09-24T17:25:11;41.30;;;23.10;;
57899;SDS011;60605;53.716;19.940;2022-09-24T17:30:15;37.90;;;20.40;;
57899;SDS011;60605;53.716;19.940;2022-09-24T17:35:19;32.10;;;17.60;;
57899;SDS011;60605;53.716;19.940;2022-09-24T17:40:23;49.80;;;31.60;;
57899;SDS011;60605;53.716;19.940;2022-09-24T17:45:28;30.30;;;19.50;;
57899;SDS011;60605;53.716;19.940;2022-09-24T17:50:30;31.00;;;17.70;;
57899;SDS011;60605;53.716;19.940;2022-09-24T17:55:33;37.30;;;18.60;;
57899;SDS011;60605;53.716;19.940;2022-09-24T18:00:36;32.70;;;18.80;;
57899;SDS011;60605;53.716;19.940;2022-09-24T18:05:40;55.70;;;29.60;;
57899;SDS011;60605;53.716;19.940;2022-09-24T18:10:43;99.50;;;51.60;;
57899;SDS011;60605;53.716;19.940;2022-09-24T18:15:47;118.90;;;56.50;;
57899;SDS011;60605;53.716;19.940;2022-09-24T18:20:54;50.00;;;29.30;;
57899;SDS011;60605;53.716;19.940;2022-09-24T18:26:06;58.60;;;34.30;;
57899;SDS011;60605;53.716;19.940;2022-09-24T18:31:12;46.70;;;26.20;;
57899;SDS011;60605;53.716;19.940;2022-09-24T18:36:17;29.90;;;18.10;;
57899;SDS011;60605;53.716;19.940;2022-09-24T18:41:22;13.60;;;8.90;;
57899;SDS011;60605;53.716;19.940;2022-09-24T18:46:29;14.10;;;8.70;;
57899;SDS011;60605;53.716;19.940;2022-09-24T18:51:34;30.40;;;18.40;;
57899;SDS011;60605;53.716;19.940;2022-09-24T18:56:38;150.80;;;48.50;;
57899;SDS011;60605;53.716;19.940;2022-09-24T19:01:42;156.40;;;56.50;;
57899;SDS011;60605;53.716;19.940;2022-09-24T19:06:46;75.30;;;34.70;;
57899;SDS011;60605;53.716;19.940;2022-09-24T19:11:49;99.60;;;46.00;;
57899;SDS011;60605;53.716;19.940;2022-09-24T19:16:52;107.40;;;46.00;;
57899;SDS011;60605;53.716;19.940;2022-09-24T19:21:58;80.70;;;41.00;;
57899;SDS011;60605;53.716;19.940;2022-09-24T19:27:01;56.40;;;33.00;;
57899;SDS011;60605;53.716;19.940;2022-09-24T19:32:04;52.10;;;32.10;;
57899;SDS011;60605;53.716;19.940;2022-09-24T19:37:07;54.30;;;35.70;;
57899;SDS011;60605;53.716;19.940;2022-09-24T19:42:11;68.40;;;43.10;;
57899;SDS011;60605;53.716;19.940;2022-09-24T19:47:16;82.50;;;52.20;;
57899;SDS011;60605;53.716;19.940;2022-09-24T19:52:21;112.30;;;63.50;;
57899;SDS011;60605;53.716;19.940;2022-09-24T19:57:26;99.00;;;59.30;;
57899;SDS011;60605;53.716;19.940;2022-09-24T20:02:31;119.90;;;70.30;;
57899;SDS011;60605;53.716;19.940;2022-09-24T20:07:35;90.40;;;56.10;;
57899;SDS011;60605;53.716;19.940;2022-09-24T20:17:43;83.00;;;46.80;;
57899;SDS011;60605;53.716;19.940;2022-09-24T20:22:52;84.50;;;46.80;;
57899;SDS011;60605;53.716;19.940;2022-09-24T20:32:56;61.30;;;36.10;;
57899;SDS011;60605;53.716;19.940;2022-09-24T20:37:59;56.50;;;36.30;;
57899;SDS011;60605;53.716;19.940;2022-09-24T20:43:03;46.80;;;33.50;;
57899;SDS011;60605;53.716;19.940;2022-09-24T20:48:07;53.30;;;38.40;;
57899;SDS011;60605;53.716;19.940;2022-09-24T20:53:09;53.10;;;35.30;;
57899;SDS011;60605;53.716;19.940;2022-09-24T20:58:14;42.60;;;29.40;;
57899;SDS011;60605;53.716;19.940;2022-09-24T21:03:19;43.50;;;26.20;;
57899;SDS011;60605;53.716;19.940;2022-09-24T21:08:44;43.90;;;28.70;;
57899;SDS011;60605;53.716;19.940;2022-09-24T21:13:50;41.70;;;28.00;;
57899;SDS011;60605;53.716;19.940;2022-09-24T21:18:56;38.70;;;25.10;;
57899;SDS011;60605;53.716;19.940;2022-09-24T21:23:59;34.00;;;25.40;;
57899;SDS011;60605;53.716;19.940;2022-09-24T21:29:03;42.40;;;26.30;;
57899;SDS011;60605;53.716;19.940;2022-09-24T21:34:10;40.40;;;27.60;;
57899;SDS011;60605;53.716;19.940;2022-09-24T21:44:19;37.60;;;25.40;;
57899;SDS011;60605;53.716;19.940;2022-09-24T21:49:22;33.50;;;22.00;;
57899;SDS011;60605;53.716;19.940;2022-09-24T21:54:24;26.40;;;19.70;;
57899;SDS011;60605;53.716;19.940;2022-09-24T21:59:26;28.80;;;19.40;;
57899;SDS011;60605;53.716;19.940;2022-09-24T22:04:47;38.90;;;22.80;;
57899;SDS011;60605;53.716;19.940;2022-09-24T22:09:48;41.50;;;25.80;;
57899;SDS011;60605;53.716;19.940;2022-09-24T22:14:50;39.80;;;25.90;;
57899;SDS011;60605;53.716;19.940;2022-09-24T22:19:52;42.60;;;27.00;;
57899;SDS011;60605;53.716;19.940;2022-09-24T22:24:54;36.70;;;23.50;;
57899;SDS011;60605;53.716;19.940;2022-09-24T22:29:56;39.70;;;25.30;;
57899;SDS011;60605;53.716;19.940;2022-09-24T22:34:58;32.10;;;23.10;;
57899;SDS011;60605;53.716;19.940;2022-09-24T22:40:19;38.10;;;26.10;;
57899;SDS011;60605;53.716;19.940;2022-09-24T22:45:22;35.00;;;23.00;;
57899;SDS011;60605;53.716;19.940;2022-09-24T22:50:24;32.30;;;21.60;;
57899;SDS011;60605;53.716;19.940;2022-09-24T22:55:26;28.90;;;19.60;;
57899;SDS011;60605;53.716;19.940;2022-09-24T23:00:29;25.80;;;17.60;;
57899;SDS011;60605;53.716;19.940;2022-09-24T23:05:33;24.10;;;16.30;;
57899;SDS011;60605;53.716;19.940;2022-09-24T23:10:35;25.40;;;16.10;;
57899;SDS011;60605;53.716;19.940;2022-09-24T23:15:39;23.00;;;17.00;;
57899;SDS011;60605;53.716;19.940;2022-09-24T23:20:41;28.10;;;21.20;;
57899;SDS011;60605;53.716;19.940;2022-09-24T23:25:45;33.50;;;23.60;;
57899;SDS011;60605;53.716;19.940;2022-09-24T23:30:54;29.20;;;19.80;;
57899;SDS011;60605;53.716;19.940;2022-09-24T23:35:58;24.90;;;18.00;;
57899;SDS011;60605;53.716;19.940;2022-09-24T23:41:02;40.40;;;20.90;;
57899;SDS011;60605;53.716;19.940;2022-09-24T23:46:07;32.50;;;18.60;;
57899;SDS011;60605;53.716;19.940;2022-09-24T23:56:12;23.60;;;14.50;;
